createdAt,value
2019-05-13T00:00:53.714Z,5.03
2019-05-13T00:01:51.101Z,5.00
2019-05-13T00:02:51.091Z,4.98
2019-05-13T00:03:51.119Z,5.00
2019-05-13T00:04:53.111Z,5.01
2019-05-13T00:05:53.223Z,4.98
2019-05-13T00:06:54.428Z,4.98
2019-05-13T00:07:53.970Z,4.97
2019-05-13T00:08:51.035Z,5.00
2019-05-13T00:09:51.072Z,4.91
2019-05-13T00:10:51.019Z,4.93
2019-05-13T00:11:51.002Z,4.91
2019-05-13T00:12:53.793Z,4.96
2019-05-13T00:13:50.980Z,4.91
2019-05-13T00:14:50.973Z,5.06
2019-05-13T00:15:50.980Z,5.03
2019-05-13T00:16:53.484Z,4.94
2019-05-13T00:17:50.936Z,4.91
2019-05-13T00:18:53.344Z,4.97
2019-05-13T00:19:53.130Z,4.93
2019-05-13T00:20:50.897Z,4.82
2019-05-13T00:21:50.944Z,4.89
2019-05-13T00:22:50.914Z,4.79
2019-05-13T00:23:50.859Z,4.86
2019-05-13T00:24:50.879Z,4.79
2019-05-13T00:25:50.839Z,4.77
2019-05-13T00:26:53.094Z,4.77
2019-05-13T00:27:53.517Z,4.89
2019-05-13T00:28:50.809Z,4.79
2019-05-13T00:29:50.795Z,4.82
2019-05-13T00:30:50.785Z,4.78
2019-05-13T00:31:50.774Z,4.72
2019-05-13T00:32:50.774Z,4.75
2019-05-13T00:33:53.126Z,4.71
2019-05-13T00:34:50.748Z,4.74
2019-05-13T00:35:50.731Z,4.67
2019-05-13T00:37:06.889Z,4.59
2019-05-13T00:37:54.145Z,4.64
2019-05-13T00:38:50.705Z,4.59
2019-05-13T00:39:50.914Z,4.53
2019-05-13T00:40:50.697Z,4.56
2019-05-13T00:41:50.685Z,4.57
2019-05-13T00:42:50.656Z,4.56
2019-05-13T00:43:50.645Z,4.46
2019-05-13T00:44:50.636Z,4.43
2019-05-13T00:45:50.654Z,4.46
2019-05-13T00:46:50.616Z,4.53
2019-05-13T00:47:50.638Z,4.48
2019-05-13T00:48:50.604Z,4.38
2019-05-13T00:49:50.585Z,4.48
2019-05-13T00:50:50.573Z,4.54
2019-05-13T00:51:50.609Z,4.53
2019-05-13T00:52:50.550Z,4.56
2019-05-13T00:53:50.541Z,4.53
2019-05-13T00:54:50.538Z,4.49
2019-05-13T00:55:50.526Z,4.53
2019-05-13T00:56:50.619Z,4.51
2019-05-13T00:57:50.700Z,4.54
2019-05-13T00:58:50.488Z,4.38
2019-05-13T00:59:50.476Z,4.46
2019-05-13T01:00:50.518Z,4.51
2019-05-13T01:01:50.456Z,4.45
2019-05-13T01:02:50.456Z,4.45
2019-05-13T01:03:50.489Z,4.36
2019-05-13T01:04:53.506Z,4.30
2019-05-13T01:05:50.416Z,4.38
2019-05-13T01:06:50.402Z,4.42
2019-05-13T01:07:50.483Z,4.36
2019-05-13T01:08:50.388Z,4.34
2019-05-13T01:09:50.405Z,4.34
2019-05-13T01:10:50.406Z,4.27
2019-05-13T01:11:50.366Z,4.27
2019-05-13T01:12:50.351Z,4.24
2019-05-13T01:13:50.342Z,4.28
2019-05-13T01:14:50.335Z,4.41
2019-05-13T01:15:50.373Z,4.31
2019-05-13T01:16:50.295Z,4.28
2019-05-13T01:17:50.500Z,4.21
2019-05-13T01:18:50.283Z,4.38
2019-05-13T01:19:50.289Z,4.28
2019-05-13T01:20:50.256Z,4.27
2019-05-13T01:21:50.322Z,4.41
2019-05-13T01:22:50.243Z,4.34
2019-05-13T01:23:50.262Z,4.21
2019-05-13T01:24:50.215Z,4.26
2019-05-13T01:25:50.257Z,4.27
2019-05-13T01:26:50.190Z,4.23
2019-05-13T01:27:50.392Z,4.18
2019-05-13T01:28:50.171Z,4.23
2019-05-13T01:29:50.221Z,4.08
2019-05-13T01:30:50.148Z,4.00
2019-05-13T01:31:50.145Z,4.06
2019-05-13T01:32:50.127Z,4.08
2019-05-13T01:33:50.169Z,4.06
2019-05-13T01:34:50.101Z,4.09
2019-05-13T01:35:50.103Z,4.08
2019-05-13T01:36:50.089Z,4.12
2019-05-13T01:37:50.074Z,4.09
2019-05-13T01:38:50.067Z,4.10
2019-05-13T01:39:50.135Z,4.03
2019-05-13T01:40:50.050Z,4.03
2019-05-13T01:41:50.042Z,4.05
2019-05-13T01:42:50.025Z,3.94
2019-05-13T01:43:50.018Z,4.03
2019-05-13T01:44:50.026Z,4.02
2019-05-13T01:45:50.040Z,3.98
2019-05-13T01:46:50.002Z,3.96
2019-05-13T01:47:49.990Z,3.99
2019-05-13T01:48:49.962Z,3.96
2019-05-13T01:49:49.948Z,3.90
2019-05-13T01:50:49.967Z,3.82
2019-05-13T01:51:49.973Z,3.82
2019-05-13T01:52:49.923Z,3.84
2019-05-13T01:53:49.909Z,3.87
2019-05-13T01:54:49.895Z,3.81
2019-05-13T01:55:49.986Z,3.90
2019-05-13T01:56:49.875Z,3.82
2019-05-13T01:57:49.907Z,3.85
2019-05-13T01:58:49.883Z,3.81
2019-05-13T01:59:49.898Z,3.80
2019-05-13T02:00:51.703Z,3.81
2019-05-13T02:01:49.814Z,3.80
2019-05-13T02:02:49.819Z,3.72
2019-05-13T02:03:49.873Z,3.67
2019-05-13T02:04:49.780Z,3.60
2019-05-13T02:05:49.822Z,3.70
2019-05-13T02:06:49.762Z,3.70
2019-05-13T02:07:57.667Z,3.55
2019-05-13T02:08:50.781Z,3.67
2019-05-13T02:09:49.766Z,3.59
2019-05-13T02:10:49.717Z,3.54
2019-05-13T02:11:49.836Z,3.62
2019-05-13T02:12:49.697Z,3.63
2019-05-13T02:13:49.720Z,3.55
2019-05-13T02:14:49.735Z,3.56
2019-05-13T02:15:49.666Z,3.60
2019-05-13T02:16:49.653Z,3.63
2019-05-13T02:17:49.642Z,3.60
2019-05-13T02:18:49.629Z,3.51
2019-05-13T02:19:49.622Z,3.45
2019-05-13T02:20:49.666Z,3.51
2019-05-13T02:21:49.603Z,3.51
2019-05-13T02:22:49.591Z,3.51
2019-05-13T02:23:49.576Z,3.49
2019-05-13T02:24:49.568Z,3.48
2019-05-13T02:25:49.555Z,3.42
2019-05-13T02:26:49.575Z,3.37
2019-05-13T02:27:49.536Z,3.41
2019-05-13T02:28:49.527Z,3.37
2019-05-13T02:29:49.525Z,3.37
2019-05-13T02:30:49.512Z,3.36
2019-05-13T02:31:55.127Z,3.33
2019-05-13T02:32:53.121Z,3.37
2019-05-13T02:33:49.503Z,3.35
2019-05-13T02:34:49.462Z,3.33
2019-05-13T02:35:52.666Z,3.27
2019-05-13T02:36:52.524Z,3.29
2019-05-13T02:37:52.441Z,3.23
2019-05-13T02:38:49.447Z,3.23
2019-05-13T02:39:49.416Z,3.23
2019-05-13T02:40:52.405Z,3.26
2019-05-13T02:41:52.670Z,3.20
2019-05-13T02:42:52.126Z,3.25
2019-05-13T02:43:52.404Z,3.17
2019-05-13T02:44:52.760Z,3.26
2019-05-13T02:45:52.782Z,3.20
2019-05-13T02:46:52.274Z,3.22
2019-05-13T02:47:52.004Z,3.22
2019-05-13T02:48:52.571Z,3.18
2019-05-13T02:49:49.300Z,3.26
2019-05-13T02:50:52.544Z,3.18
2019-05-13T02:51:49.285Z,3.18
2019-05-13T02:52:49.289Z,3.14
2019-05-13T02:53:52.193Z,3.12
2019-05-13T02:54:52.505Z,3.17
2019-05-13T02:55:51.656Z,3.09
2019-05-13T02:56:52.475Z,2.99
2019-05-13T02:57:52.672Z,3.14
2019-05-13T02:58:52.428Z,3.00
2019-05-13T02:59:51.906Z,2.99
2019-05-13T03:00:53.134Z,2.89
2019-05-13T03:01:53.009Z,2.96
2019-05-13T03:02:52.246Z,2.96
2019-05-13T03:03:52.540Z,2.96
2019-05-13T03:04:52.053Z,2.79
2019-05-13T03:05:52.340Z,2.79
2019-05-13T03:06:51.989Z,2.84
2019-05-13T03:07:52.960Z,2.86
2019-05-13T03:08:53.241Z,2.82
2019-05-13T03:09:52.650Z,2.87
2019-05-13T03:10:52.731Z,2.89
2019-05-13T03:11:53.227Z,2.81
2019-05-13T03:12:49.065Z,2.79
2019-05-13T03:13:49.055Z,2.82
2019-05-13T03:14:49.071Z,2.76
2019-05-13T03:15:52.221Z,2.86
2019-05-13T03:16:51.781Z,2.82
2019-05-13T03:17:52.344Z,2.82
2019-05-13T03:18:52.135Z,2.81
2019-05-13T03:19:52.699Z,2.82
2019-05-13T03:20:52.642Z,2.86
2019-05-13T03:21:52.066Z,2.78
2019-05-13T03:22:52.277Z,2.79
2019-05-13T03:23:52.240Z,2.82
2019-05-13T03:24:52.077Z,2.82
2019-05-13T03:25:48.915Z,2.82
2019-05-13T03:26:48.951Z,2.82
2019-05-13T03:27:48.889Z,2.76
2019-05-13T03:28:52.172Z,2.86
2019-05-13T03:29:48.866Z,2.75
2019-05-13T03:30:48.881Z,2.78
2019-05-13T03:31:48.865Z,2.75
2019-05-13T03:32:58.523Z,2.76
2019-05-13T03:33:55.515Z,2.73
2019-05-13T03:34:55.183Z,2.73
2019-05-13T03:35:54.915Z,2.78
2019-05-13T03:36:55.891Z,2.75
2019-05-13T03:37:52.717Z,2.72
2019-05-13T03:39:01.629Z,2.72
2019-05-13T03:39:52.370Z,2.69
2019-05-13T03:40:48.759Z,2.68
2019-05-13T03:41:48.737Z,2.71
2019-05-13T03:42:48.734Z,2.72
2019-05-13T03:43:48.760Z,2.57
2019-05-13T03:44:52.269Z,2.58
2019-05-13T03:45:48.715Z,2.65
2019-05-13T03:46:48.696Z,2.65
2019-05-13T03:47:48.675Z,2.68
2019-05-13T03:48:48.663Z,2.69
2019-05-13T03:49:48.713Z,2.68
2019-05-13T03:50:48.656Z,2.65
2019-05-13T03:51:48.636Z,2.55
2019-05-13T03:52:48.623Z,2.58
2019-05-13T03:53:48.610Z,2.53
2019-05-13T03:54:51.855Z,2.54
2019-05-13T03:55:48.620Z,2.57
2019-05-13T03:56:48.578Z,2.53
2019-05-13T03:57:48.567Z,2.53
2019-05-13T03:58:48.556Z,2.50
2019-05-13T03:59:48.545Z,2.42
2019-05-13T04:00:48.536Z,2.47
2019-05-13T04:01:52.186Z,2.42
2019-05-13T04:02:48.522Z,2.30
2019-05-13T04:03:48.503Z,2.36
2019-05-13T04:04:48.500Z,2.47
2019-05-13T04:05:48.495Z,2.47
2019-05-13T04:06:48.492Z,2.33
2019-05-13T04:07:48.504Z,2.36
2019-05-13T04:08:48.460Z,2.42
2019-05-13T04:09:48.485Z,2.42
2019-05-13T04:10:48.435Z,2.43
2019-05-13T04:11:48.419Z,2.39
2019-05-13T04:12:48.418Z,2.45
2019-05-13T04:13:48.494Z,2.37
2019-05-13T04:14:48.390Z,2.43
2019-05-13T04:15:48.389Z,2.48
2019-05-13T04:16:48.384Z,2.53
2019-05-13T04:17:48.442Z,2.51
2019-05-13T04:18:48.380Z,2.48
2019-05-13T04:19:48.386Z,2.53
2019-05-13T04:20:48.319Z,2.53
2019-05-13T04:21:48.322Z,2.51
2019-05-13T04:22:48.302Z,2.43
2019-05-13T04:23:48.297Z,2.51
2019-05-13T04:24:48.304Z,2.54
2019-05-13T04:25:48.310Z,2.54
2019-05-13T04:26:48.261Z,2.53
2019-05-13T04:27:48.250Z,2.54
2019-05-13T04:28:48.246Z,2.51
2019-05-13T04:29:48.240Z,2.57
2019-05-13T04:30:48.251Z,2.66
2019-05-13T04:31:48.275Z,2.65
2019-05-13T04:32:48.201Z,2.61
2019-05-13T04:33:48.212Z,2.61
2019-05-13T04:34:48.170Z,2.61
2019-05-13T04:35:48.158Z,2.71
2019-05-13T04:36:48.180Z,2.71
2019-05-13T04:37:48.431Z,2.87
2019-05-13T04:38:48.142Z,2.86
2019-05-13T04:39:52.677Z,2.78
2019-05-13T04:40:49.106Z,2.79
2019-05-13T04:41:48.095Z,2.97
2019-05-13T04:42:48.103Z,3.08
2019-05-13T04:43:48.122Z,3.02
2019-05-13T04:44:48.066Z,3.17
2019-05-13T04:45:48.128Z,3.12
2019-05-13T04:46:48.153Z,3.22
2019-05-13T04:47:48.034Z,3.33
2019-05-13T04:48:48.030Z,3.36
2019-05-13T04:49:48.060Z,3.41
2019-05-13T04:50:48.054Z,3.54
2019-05-13T04:51:47.994Z,3.49
2019-05-13T04:52:47.976Z,3.56
2019-05-13T04:53:53.327Z,3.60
2019-05-13T04:54:52.509Z,3.59
2019-05-13T04:55:47.951Z,3.66
2019-05-13T04:56:47.934Z,3.66
2019-05-13T04:57:47.926Z,3.59
2019-05-13T04:58:47.931Z,3.73
2019-05-13T04:59:47.903Z,3.64
2019-05-13T05:00:56.445Z,3.80
2019-05-13T05:01:57.801Z,3.74
2019-05-13T05:02:51.304Z,3.81
2019-05-13T05:03:48.857Z,3.84
2019-05-13T05:04:47.849Z,3.91
2019-05-13T05:05:47.863Z,3.94
2019-05-13T05:06:47.928Z,4.00
2019-05-13T05:07:47.824Z,4.09
2019-05-13T05:08:48.162Z,4.03
2019-05-13T05:10:13.175Z,4.18
2019-05-13T05:10:51.126Z,4.20
2019-05-13T05:11:48.825Z,4.16
2019-05-13T05:12:47.765Z,4.21
2019-05-13T05:13:47.752Z,4.28
2019-05-13T05:14:47.746Z,4.35
2019-05-13T05:15:47.733Z,4.31
2019-05-13T05:16:47.731Z,4.31
2019-05-13T05:17:47.778Z,4.30
2019-05-13T05:18:47.701Z,4.43
2019-05-13T05:19:47.932Z,4.41
2019-05-13T05:20:47.689Z,4.45
2019-05-13T05:21:47.677Z,4.51
2019-05-13T05:22:47.656Z,4.54
2019-05-13T05:23:47.719Z,4.56
2019-05-13T05:24:47.636Z,4.59
2019-05-13T05:25:47.626Z,4.57
2019-05-13T05:26:47.612Z,4.61
2019-05-13T05:27:47.599Z,4.67
2019-05-13T05:28:47.594Z,4.60
2019-05-13T05:29:47.652Z,4.77
2019-05-13T05:30:47.572Z,4.74
2019-05-13T05:31:47.567Z,4.72
2019-05-13T05:32:47.549Z,4.91
2019-05-13T05:33:47.576Z,4.78
2019-05-13T05:34:47.523Z,4.78
2019-05-13T05:35:47.610Z,4.89
2019-05-13T05:36:47.504Z,4.94
2019-05-13T05:37:47.494Z,4.96
2019-05-13T05:38:47.487Z,4.94
2019-05-13T05:39:47.472Z,5.00
2019-05-13T05:40:47.464Z,5.01
2019-05-13T05:41:47.531Z,5.06
2019-05-13T05:42:47.446Z,4.93
2019-05-13T05:43:47.426Z,5.00
2019-05-13T05:44:47.420Z,5.04
2019-05-13T05:45:47.407Z,5.09
2019-05-13T05:46:47.432Z,5.09
2019-05-13T05:47:47.456Z,5.06
2019-05-13T05:48:50.050Z,5.16
2019-05-13T05:49:48.364Z,5.11
2019-05-13T05:50:47.354Z,5.07
2019-05-13T05:51:47.341Z,5.27
2019-05-13T05:52:47.332Z,5.32
2019-05-13T05:53:47.389Z,5.30
2019-05-13T05:54:47.312Z,5.33
2019-05-13T05:55:47.298Z,5.37
2019-05-13T05:56:47.285Z,5.47
2019-05-13T05:57:47.292Z,5.34
2019-05-13T05:58:47.266Z,5.47
2019-05-13T05:59:47.311Z,5.54
2019-05-13T06:00:47.244Z,5.58
2019-05-13T06:01:47.242Z,5.70
2019-05-13T06:02:47.224Z,5.62
2019-05-13T06:03:47.208Z,5.67
2019-05-13T06:04:47.199Z,5.69
2019-05-13T06:05:47.238Z,5.79
2019-05-13T06:06:47.180Z,5.76
2019-05-13T06:07:47.163Z,5.80
2019-05-13T06:08:47.152Z,5.79
2019-05-13T06:09:47.145Z,5.77
2019-05-13T06:10:50.462Z,5.95
2019-05-13T06:11:48.197Z,6.00
2019-05-13T06:12:47.116Z,5.98
2019-05-13T06:13:47.099Z,6.09
2019-05-13T06:14:47.091Z,6.09
2019-05-13T06:15:47.080Z,6.18
2019-05-13T06:16:47.079Z,6.13
2019-05-13T06:17:47.137Z,6.16
2019-05-13T06:18:47.054Z,6.13
2019-05-13T06:19:47.397Z,6.27
2019-05-13T06:20:47.137Z,6.37
2019-05-13T06:21:47.215Z,6.34
2019-05-13T06:22:47.085Z,6.38
2019-05-13T06:23:47.052Z,6.38
2019-05-13T06:24:46.979Z,6.47
2019-05-13T06:25:46.972Z,6.50
2019-05-13T06:26:46.958Z,6.63
2019-05-13T06:27:46.945Z,6.67
2019-05-13T06:28:46.957Z,6.64
2019-05-13T06:29:49.166Z,6.70
2019-05-13T06:30:46.934Z,6.85
2019-05-13T06:31:46.955Z,6.85
2019-05-13T06:32:46.900Z,6.83
2019-05-13T06:33:46.880Z,6.97
2019-05-13T06:34:46.873Z,7.07
2019-05-13T06:35:46.905Z,7.01
2019-05-13T06:36:46.848Z,7.03
2019-05-13T06:37:46.858Z,7.08
2019-05-13T06:38:46.826Z,7.18
2019-05-13T06:39:47.455Z,7.13
2019-05-13T06:40:59.299Z,7.28
2019-05-13T06:41:47.827Z,7.28
2019-05-13T06:42:46.792Z,7.31
2019-05-13T06:43:47.505Z,7.44
2019-05-13T06:44:46.789Z,7.44
2019-05-13T06:45:46.751Z,7.52
2019-05-13T06:46:46.792Z,7.49
2019-05-13T06:47:46.769Z,7.64
2019-05-13T06:48:46.717Z,7.68
2019-05-13T06:49:46.735Z,7.76
2019-05-13T06:50:46.696Z,7.66
2019-05-13T06:51:46.706Z,7.81
2019-05-13T06:52:46.721Z,7.87
2019-05-13T06:53:46.694Z,7.95
2019-05-13T06:54:46.653Z,7.99
2019-05-13T06:55:46.640Z,8.10
2019-05-13T06:56:46.645Z,8.06
2019-05-13T06:57:46.630Z,7.99
2019-05-13T06:58:46.629Z,8.09
2019-05-13T06:59:46.642Z,8.01
2019-05-13T07:00:46.586Z,7.99
2019-05-13T07:01:46.576Z,8.01
2019-05-13T07:02:46.584Z,7.95
2019-05-13T07:03:46.555Z,8.01
2019-05-13T07:04:46.545Z,8.04
2019-05-13T07:05:46.706Z,7.98
2019-05-13T07:06:46.521Z,8.12
2019-05-13T07:07:46.512Z,8.14
2019-05-13T07:08:46.504Z,8.23
2019-05-13T07:09:46.496Z,8.32
2019-05-13T07:10:46.480Z,8.49
2019-05-13T07:11:46.570Z,8.59
2019-05-13T07:12:46.457Z,8.56
2019-05-13T07:13:46.451Z,8.53
2019-05-13T07:14:46.443Z,8.50
2019-05-13T07:15:46.443Z,8.52
2019-05-13T07:16:46.411Z,8.62
2019-05-13T07:17:46.461Z,8.60
2019-05-13T07:18:46.406Z,8.65
2019-05-13T07:19:46.385Z,8.86
2019-05-13T07:20:46.370Z,8.88
2019-05-13T07:21:46.376Z,8.93
2019-05-13T07:22:46.348Z,8.95
2019-05-13T07:23:46.385Z,9.03
2019-05-13T07:24:46.323Z,9.12
2019-05-13T07:25:46.315Z,9.14
2019-05-13T07:26:46.304Z,9.12
2019-05-13T07:27:46.313Z,9.14
2019-05-13T07:28:46.281Z,9.24
2019-05-13T07:29:46.297Z,9.29
2019-05-13T07:30:46.260Z,9.33
2019-05-13T07:31:46.247Z,9.30
2019-05-13T07:32:46.237Z,9.41
2019-05-13T07:33:46.245Z,9.54
2019-05-13T07:34:46.228Z,9.55
2019-05-13T07:35:46.572Z,9.60
2019-05-13T07:36:46.196Z,9.70
2019-05-13T07:37:46.183Z,9.67
2019-05-13T07:38:46.172Z,9.80
2019-05-13T07:39:46.219Z,9.88
2019-05-13T07:40:46.148Z,9.98
2019-05-13T07:41:46.172Z,9.96
2019-05-13T07:42:46.127Z,10.09
2019-05-13T07:43:46.113Z,10.01
2019-05-13T07:44:46.103Z,9.90
2019-05-13T07:45:46.100Z,10.02
2019-05-13T07:46:46.083Z,9.91
2019-05-13T07:47:46.124Z,10.01
2019-05-13T07:48:46.064Z,9.96
2019-05-13T07:49:46.049Z,10.01
2019-05-13T07:50:56.818Z,10.01
2019-05-13T07:51:47.040Z,10.06
2019-05-13T07:52:46.016Z,10.24
2019-05-13T07:53:46.038Z,10.31
2019-05-13T07:54:45.993Z,10.35
2019-05-13T07:55:45.997Z,10.43
2019-05-13T07:56:45.971Z,10.64
2019-05-13T07:57:45.978Z,10.65
2019-05-13T07:58:45.949Z,10.80
2019-05-13T07:59:46.181Z,10.78
2019-05-13T08:00:45.959Z,10.86
2019-05-13T08:01:45.918Z,10.93
2019-05-13T08:02:45.907Z,10.87
2019-05-13T08:03:45.910Z,10.90
2019-05-13T08:04:49.230Z,11.00
2019-05-13T08:05:45.903Z,11.22
2019-05-13T08:06:45.865Z,11.23
2019-05-13T08:07:45.858Z,11.31
2019-05-13T08:08:45.838Z,11.41
2019-05-13T08:09:45.868Z,11.41
2019-05-13T08:10:45.819Z,11.37
2019-05-13T08:12:04.321Z,11.40
2019-05-13T08:12:46.799Z,11.46
2019-05-13T08:13:45.784Z,11.43
2019-05-13T08:14:45.773Z,11.49
2019-05-13T08:15:45.775Z,11.40
2019-05-13T08:16:45.753Z,11.48
2019-05-13T08:17:47.709Z,11.46
2019-05-13T08:18:45.731Z,11.54
2019-05-13T08:19:45.724Z,11.49
2019-05-13T08:20:45.712Z,11.49
2019-05-13T08:21:45.718Z,11.40
2019-05-13T08:22:45.687Z,11.30
2019-05-13T08:23:45.708Z,11.20
2019-05-13T08:24:45.667Z,11.33
2019-05-13T08:25:45.657Z,11.40
2019-05-13T08:26:49.971Z,11.38
2019-05-13T08:27:46.649Z,11.45
2019-05-13T08:29:00.302Z,11.48
2019-05-13T08:29:46.661Z,11.48
2019-05-13T08:30:45.703Z,11.51
2019-05-13T08:31:45.590Z,11.41
2019-05-13T08:32:45.579Z,11.38
2019-05-13T08:33:45.590Z,11.36
2019-05-13T08:34:45.557Z,11.59
2019-05-13T08:35:47.050Z,11.54
2019-05-13T08:36:46.549Z,11.69
2019-05-13T08:37:45.525Z,11.80
2019-05-13T08:38:45.527Z,11.85
2019-05-13T08:39:45.519Z,11.71
2019-05-13T08:40:45.496Z,11.66
2019-05-13T08:41:45.527Z,11.66
2019-05-13T08:42:45.477Z,11.61
2019-05-13T08:43:45.457Z,11.58
2019-05-13T08:44:45.447Z,11.51
2019-05-13T08:45:45.461Z,11.66
2019-05-13T08:46:45.430Z,11.71
2019-05-13T08:47:45.474Z,11.80
2019-05-13T08:48:45.414Z,11.91
2019-05-13T08:49:45.392Z,11.93
2019-05-13T08:50:45.383Z,12.05
2019-05-13T08:51:45.410Z,11.99
2019-05-13T08:52:45.394Z,12.00
2019-05-13T08:53:45.387Z,12.21
2019-05-13T08:54:45.342Z,12.14
2019-05-13T08:55:45.331Z,12.29
2019-05-13T08:56:45.319Z,12.36
2019-05-13T08:57:45.339Z,12.46
2019-05-13T08:58:45.338Z,12.33
2019-05-13T08:59:45.313Z,12.38
2019-05-13T09:00:45.276Z,12.35
2019-05-13T09:01:45.303Z,12.46
2019-05-13T09:02:45.252Z,12.53
2019-05-13T09:03:45.286Z,12.53
2019-05-13T09:04:45.236Z,12.71
2019-05-13T09:05:45.272Z,12.81
2019-05-13T09:06:45.230Z,12.77
2019-05-13T09:07:45.199Z,12.86
2019-05-13T09:08:45.189Z,12.77
2019-05-13T09:09:45.191Z,12.61
2019-05-13T09:10:45.165Z,12.66
2019-05-13T09:11:45.198Z,12.80
2019-05-13T09:12:45.146Z,12.95
2019-05-13T09:13:45.133Z,12.93
2019-05-13T09:14:45.125Z,12.93
2019-05-13T09:15:45.134Z,12.96
2019-05-13T09:16:45.205Z,12.95
2019-05-13T09:17:45.119Z,12.99
2019-05-13T09:18:45.096Z,13.01
2019-05-13T09:19:45.067Z,13.04
2019-05-13T09:20:45.057Z,13.06
2019-05-13T09:21:45.053Z,13.09
2019-05-13T09:22:45.038Z,13.04
2019-05-13T09:23:45.063Z,12.96
2019-05-13T09:24:45.014Z,13.16
2019-05-13T09:25:45.005Z,12.95
2019-05-13T09:26:45.142Z,13.01
2019-05-13T09:27:45.005Z,13.09
2019-05-13T09:28:44.971Z,13.06
2019-05-13T09:29:44.997Z,13.14
2019-05-13T09:30:44.951Z,13.30
2019-05-13T09:31:44.938Z,13.23
2019-05-13T09:32:44.930Z,13.32
2019-05-13T09:33:44.939Z,13.35
2019-05-13T09:34:44.905Z,13.49
2019-05-13T09:35:44.929Z,13.61
2019-05-13T09:36:44.890Z,13.72
2019-05-13T09:37:44.869Z,13.53
2019-05-13T09:38:44.859Z,13.55
2019-05-13T09:39:44.867Z,13.47
2019-05-13T09:40:44.841Z,13.54
2019-05-13T09:41:44.912Z,13.55
2019-05-13T09:42:51.072Z,13.63
2019-05-13T09:43:45.809Z,13.68
2019-05-13T09:44:44.792Z,13.68
2019-05-13T09:45:44.790Z,13.71
2019-05-13T09:46:44.782Z,13.71
2019-05-13T09:47:44.800Z,13.76
2019-05-13T09:48:44.759Z,13.58
2019-05-13T09:49:44.743Z,13.57
2019-05-13T09:50:44.728Z,13.54
2019-05-13T09:51:44.721Z,13.58
2019-05-13T09:52:44.726Z,13.60
2019-05-13T09:53:44.821Z,13.63
2019-05-13T09:54:44.687Z,13.64
2019-05-13T09:55:44.670Z,13.90
2019-05-13T09:56:44.679Z,13.79
2019-05-13T09:57:44.658Z,13.73
2019-05-13T09:58:44.638Z,13.64
2019-05-13T09:59:44.665Z,13.64
2019-05-13T10:00:44.616Z,13.78
2019-05-13T10:01:44.618Z,13.79
2019-05-13T10:02:44.610Z,13.90
2019-05-13T10:03:53.928Z,13.86
2019-05-13T10:04:45.618Z,14.01
2019-05-13T10:05:44.613Z,14.13
2019-05-13T10:06:44.551Z,14.19
2019-05-13T10:07:44.539Z,14.23
2019-05-13T10:08:44.536Z,14.26
2019-05-13T10:09:48.277Z,14.18
2019-05-13T10:10:44.605Z,14.22
2019-05-13T10:11:44.501Z,14.19
2019-05-13T10:12:44.491Z,14.12
2019-05-13T10:13:44.482Z,14.26
2019-05-13T10:14:44.504Z,14.37
2019-05-13T10:15:48.612Z,14.61
2019-05-13T10:16:44.521Z,14.59
2019-05-13T10:17:44.431Z,14.49
2019-05-13T10:18:44.420Z,14.46
2019-05-13T10:19:44.440Z,14.46
2019-05-13T10:20:44.402Z,14.49
2019-05-13T10:21:44.385Z,14.55
2019-05-13T10:22:44.407Z,14.58
2019-05-13T10:23:44.362Z,14.52
2019-05-13T10:24:44.390Z,14.55
2019-05-13T10:25:44.340Z,14.66
2019-05-13T10:26:44.331Z,14.69
2019-05-13T10:27:44.333Z,14.78
2019-05-13T10:28:44.349Z,15.07
2019-05-13T10:29:44.297Z,15.01
2019-05-13T10:30:44.350Z,15.08
2019-05-13T10:31:44.290Z,15.25
2019-05-13T10:32:44.284Z,15.27
2019-05-13T10:33:44.326Z,15.23
2019-05-13T10:34:44.289Z,15.25
2019-05-13T10:35:44.226Z,15.10
2019-05-13T10:36:44.229Z,15.10
2019-05-13T10:37:44.203Z,15.03
2019-05-13T10:38:44.245Z,15.17
2019-05-13T10:39:44.193Z,15.32
2019-05-13T10:40:44.226Z,15.26
2019-05-13T10:41:44.177Z,15.30
2019-05-13T10:42:44.150Z,15.33
2019-05-13T10:43:44.628Z,15.30
2019-05-13T10:44:44.128Z,15.27
2019-05-13T10:45:44.114Z,15.27
2019-05-13T10:46:44.185Z,15.43
2019-05-13T10:47:44.462Z,15.32
2019-05-13T10:48:44.226Z,15.20
2019-05-13T10:49:44.077Z,15.22
2019-05-13T10:50:44.126Z,15.33
2019-05-13T10:51:44.059Z,15.25
2019-05-13T10:52:44.092Z,15.01
2019-05-13T10:53:44.083Z,15.12
2019-05-13T10:54:44.045Z,15.23
2019-05-13T10:55:44.035Z,15.26
2019-05-13T10:56:44.001Z,15.20
2019-05-13T10:57:43.984Z,15.26
2019-05-13T10:58:44.130Z,15.27
2019-05-13T10:59:43.960Z,15.40
2019-05-13T11:00:43.953Z,15.68
2019-05-13T11:01:43.940Z,15.73
2019-05-13T11:02:43.931Z,15.70
2019-05-13T11:03:43.922Z,15.72
2019-05-13T11:04:44.029Z,15.63
2019-05-13T11:05:44.774Z,15.72
2019-05-13T11:06:43.998Z,15.59
2019-05-13T11:07:43.882Z,15.45
2019-05-13T11:08:43.972Z,15.59
2019-05-13T11:09:43.906Z,15.70
2019-05-13T11:10:43.964Z,15.84
2019-05-13T11:11:43.910Z,15.83
2019-05-13T11:12:43.826Z,15.77
2019-05-13T11:13:55.194Z,15.88
2019-05-13T11:14:46.791Z,15.85
2019-05-13T11:15:45.535Z,15.87
2019-05-13T11:16:43.798Z,15.85
2019-05-13T11:17:43.780Z,16.02
2019-05-13T11:18:43.755Z,16.10
2019-05-13T11:19:43.760Z,15.96
2019-05-13T11:20:43.737Z,15.85
2019-05-13T11:21:44.463Z,15.95
2019-05-13T11:22:43.724Z,16.02
2019-05-13T11:23:43.702Z,16.16
2019-05-13T11:24:43.700Z,16.16
2019-05-13T11:25:43.682Z,16.10
2019-05-13T11:26:43.665Z,16.05
2019-05-13T11:27:43.708Z,16.00
2019-05-13T11:28:43.646Z,16.05
2019-05-13T11:29:43.631Z,16.21
2019-05-13T11:30:43.629Z,16.32
2019-05-13T11:31:43.614Z,16.34
2019-05-13T11:32:43.602Z,16.24
2019-05-13T11:33:43.646Z,16.37
2019-05-13T11:34:43.579Z,16.29
2019-05-13T11:35:43.572Z,16.29
2019-05-13T11:36:43.670Z,16.21
2019-05-13T11:37:43.662Z,16.36
2019-05-13T11:38:43.606Z,16.51
2019-05-13T11:39:43.574Z,16.44
2019-05-13T11:40:43.514Z,16.37
2019-05-13T11:41:43.502Z,16.57
2019-05-13T11:42:43.524Z,16.62
2019-05-13T11:43:43.484Z,16.74
2019-05-13T11:44:43.470Z,16.82
2019-05-13T11:45:43.495Z,17.12
2019-05-13T11:46:43.450Z,17.01
2019-05-13T11:47:43.451Z,17.04
2019-05-13T11:48:43.430Z,16.91
2019-05-13T11:49:43.423Z,17.07
2019-05-13T11:50:50.107Z,17.07
2019-05-13T11:51:44.441Z,17.07
2019-05-13T11:52:43.388Z,16.88
2019-05-13T11:53:43.380Z,16.91
2019-05-13T11:54:43.403Z,16.88
2019-05-13T11:55:43.358Z,17.02
2019-05-13T11:56:49.197Z,17.32
2019-05-13T11:57:44.682Z,17.49
2019-05-13T11:58:43.401Z,17.52
2019-05-13T11:59:43.355Z,17.56
2019-05-13T12:00:43.327Z,17.50
2019-05-13T12:01:43.284Z,17.54
2019-05-13T12:02:50.241Z,17.39
2019-05-13T12:03:44.298Z,17.25
2019-05-13T12:04:43.967Z,17.41
2019-05-13T12:05:43.285Z,17.56
2019-05-13T12:06:48.557Z,17.97
2019-05-13T12:07:44.223Z,18.20
2019-05-13T12:08:50.465Z,18.21
2019-05-13T12:09:44.234Z,18.39
2019-05-13T12:10:44.120Z,18.60
2019-05-13T12:11:43.176Z,18.46
2019-05-13T12:12:44.044Z,18.26
2019-05-13T12:13:43.165Z,18.13
2019-05-13T12:15:05.089Z,18.15
2019-05-13T12:15:49.447Z,18.06
2019-05-13T12:16:44.124Z,17.97
2019-05-13T12:17:43.149Z,18.42
2019-05-13T12:18:43.885Z,18.70
2019-05-13T12:19:43.096Z,18.79
2019-05-13T12:20:43.086Z,19.15
2019-05-13T12:21:46.456Z,19.39
2019-05-13T12:22:43.069Z,19.20
2019-05-13T12:23:43.061Z,19.17
2019-05-13T12:24:43.058Z,19.01
2019-05-13T12:25:43.962Z,19.16
2019-05-13T12:26:43.626Z,18.93
2019-05-13T12:27:43.036Z,19.08
2019-05-13T12:28:42.997Z,19.08
2019-05-13T12:29:43.295Z,19.07
2019-05-13T12:30:43.001Z,19.09
2019-05-13T12:31:42.974Z,19.15
2019-05-13T12:32:43.865Z,19.12
2019-05-13T12:33:44.051Z,19.16
2019-05-13T12:34:45.788Z,19.07
2019-05-13T12:35:42.923Z,19.09
2019-05-13T12:36:43.581Z,19.07
2019-05-13T12:37:43.553Z,19.04
2019-05-13T12:38:44.283Z,19.12
2019-05-13T12:39:45.122Z,18.93
2019-05-13T12:40:43.197Z,18.74
2019-05-13T12:41:43.159Z,18.83
2019-05-13T12:42:46.943Z,18.82
2019-05-13T12:43:43.051Z,18.86
2019-05-13T12:45:00.501Z,18.94
2019-05-13T12:45:44.085Z,19.09
2019-05-13T12:46:49.887Z,18.97
2019-05-13T12:47:43.866Z,18.91
2019-05-13T12:48:43.499Z,18.78
2019-05-13T12:49:44.020Z,18.76
2019-05-13T12:50:43.360Z,18.88
2019-05-13T12:51:43.924Z,18.70
2019-05-13T12:52:43.766Z,19.00
2019-05-13T12:53:43.471Z,19.17
2019-05-13T12:54:44.699Z,19.31
2019-05-13T12:55:42.754Z,19.53
2019-05-13T12:56:42.812Z,19.60
2019-05-13T12:57:42.751Z,19.72
2019-05-13T12:58:42.685Z,19.87
2019-05-13T12:59:43.571Z,19.68
2019-05-13T13:00:43.359Z,19.68
2019-05-13T13:01:42.663Z,19.54
2019-05-13T13:02:50.009Z,19.54
2019-05-13T13:03:42.673Z,19.75
2019-05-13T13:05:07.988Z,19.68
2019-05-13T13:05:43.622Z,19.50
2019-05-13T13:06:45.374Z,19.59
2019-05-13T13:07:42.673Z,19.71